createdAt,value
2022-08-26T00:00:16.153Z,58.69
2022-08-26T00:05:18.917Z,62.02
2022-08-26T00:10:22.766Z,63.09
2022-08-26T00:15:28.746Z,58.09
2022-08-26T00:20:33.913Z,60.00
2022-08-26T00:25:37.167Z,59.44
2022-08-26T00:30:48.260Z,61.87
2022-08-26T00:35:54.699Z,61.93
2022-08-26T00:40:58.460Z,61.35
2022-08-26T00:46:13.582Z,58.75
2022-08-26T00:51:21.826Z,61.78
2022-08-26T00:56:48.742Z,59.34
2022-08-26T01:01:52.544Z,60.09
2022-08-26T01:06:55.809Z,58.75
2022-08-26T01:12:01.715Z,60.80
2022-08-26T01:17:07.214Z,63.47
2022-08-26T01:22:30.321Z,59.66
2022-08-26T01:27:35.496Z,60.64
2022-08-26T01:32:39.111Z,63.95
2022-08-26T01:37:42.039Z,67.19
2022-08-26T01:42:46.765Z,62.21
2022-08-26T01:47:56.885Z,63.55
2022-08-26T01:53:10.601Z,62.39
2022-08-26T01:58:39.147Z,61.32
2022-08-26T02:04:08.322Z,63.17
2022-08-26T02:09:11.550Z,62.48
2022-08-26T02:14:21.057Z,60.84
2022-08-26T02:19:32.726Z,61.87
2022-08-26T02:24:53.613Z,59.56
2022-08-26T02:30:18.830Z,63.84
2022-08-26T02:35:23.542Z,66.09
2022-08-26T02:40:31.450Z,65.38
2022-08-26T02:45:35.027Z,65.28
2022-08-26T02:50:38.401Z,62.62
2022-08-26T02:55:42.301Z,64.18
2022-08-26T03:00:53.435Z,64.69
2022-08-26T03:05:56.244Z,63.14
2022-08-26T03:10:59.295Z,63.36
2022-08-26T03:16:05.336Z,63.75
2022-08-26T03:21:14.738Z,64.07
2022-08-26T03:26:17.491Z,61.17
2022-08-26T03:31:19.982Z,65.21
2022-08-26T03:36:27.629Z,63.46
2022-08-26T03:41:32.681Z,64.18
2022-08-26T03:46:35.282Z,67.91
2022-08-26T03:51:38.758Z,66.79
2022-08-26T03:56:41.501Z,64.39
2022-08-26T04:01:44.357Z,62.10
2022-08-26T04:06:46.835Z,66.57
2022-08-26T04:11:50.567Z,69.04
2022-08-26T04:16:55.524Z,68.27
2022-08-26T04:21:58.814Z,64.59
2022-08-26T04:27:03.690Z,64.10
2022-08-26T04:32:08.774Z,67.83
2022-08-26T04:37:11.988Z,66.76
2022-08-26T04:42:17.954Z,67.69
2022-08-26T04:47:30.410Z,69.19
2022-08-26T04:52:35.630Z,66.74
2022-08-26T04:57:38.178Z,64.81
2022-08-26T05:02:41.727Z,65.60
2022-08-26T05:07:45.301Z,67.50
2022-08-26T05:12:48.147Z,66.01
2022-08-26T05:17:51.716Z,64.87
2022-08-26T05:22:54.554Z,64.10
2022-08-26T05:27:57.826Z,64.10
2022-08-26T05:33:00.252Z,65.13
2022-08-26T05:38:04.483Z,63.16
2022-08-26T05:43:10.592Z,65.26
2022-08-26T05:48:14.284Z,62.48
2022-08-26T05:53:19.302Z,65.61
2022-08-26T05:58:24.098Z,63.44
2022-08-26T06:03:27.124Z,61.31
2022-08-26T06:08:29.668Z,62.75
2022-08-26T06:13:33.356Z,64.82
2022-08-26T06:18:45.170Z,66.99
2022-08-26T06:24:08.105Z,66.23
2022-08-26T06:29:11.132Z,66.79
2022-08-26T06:34:18.018Z,68.07
2022-08-26T06:39:20.568Z,67.16
2022-08-26T06:44:23.642Z,65.50
2022-08-26T06:49:27.495Z,63.72
2022-08-26T06:54:31.713Z,63.16
2022-08-26T06:59:34.405Z,61.12
2022-08-26T07:04:36.882Z,60.11
2022-08-26T07:09:39.332Z,59.21
2022-08-26T07:14:43.773Z,58.26
2022-08-26T07:19:50.179Z,57.76
2022-08-26T07:24:52.889Z,56.31
2022-08-26T07:29:58.242Z,56.07
2022-08-26T07:35:00.742Z,56.90
2022-08-26T07:40:05.195Z,55.93
2022-08-26T07:45:08.154Z,55.82
2022-08-26T07:50:10.993Z,53.43
2022-08-26T07:55:13.999Z,56.29
2022-08-26T08:00:18.022Z,56.35
2022-08-26T08:05:22.415Z,53.39
2022-08-26T08:10:30.557Z,53.21
2022-08-26T08:15:35.503Z,54.14
2022-08-26T08:20:38.439Z,54.25
2022-08-26T08:25:41.377Z,54.07
2022-08-26T08:30:43.961Z,54.12
2022-08-26T08:35:46.577Z,50.96
2022-08-26T08:40:49.251Z,49.51
2022-08-26T08:46:05.772Z,47.78
2022-08-26T08:51:35.933Z,46.15
2022-08-26T08:56:59.890Z,45.80
2022-08-26T09:02:18.364Z,48.73
2022-08-26T09:07:26.213Z,49.54
2022-08-26T09:12:34.123Z,50.01
2022-08-26T09:17:50.989Z,49.08
2022-08-26T09:22:53.901Z,51.87
2022-08-26T09:27:56.487Z,53.03
2022-08-26T09:33:11.274Z,53.69
2022-08-26T09:38:32.997Z,54.21
2022-08-26T09:43:35.811Z,52.44
2022-08-26T09:48:40.597Z,49.74
2022-08-26T09:54:01.912Z,47.29
2022-08-26T09:59:10.947Z,45.40
2022-08-26T10:04:27.143Z,42.48
2022-08-26T10:09:39.232Z,40.06
2022-08-26T10:14:56.329Z,39.05
2022-08-26T10:20:41.835Z,38.46
2022-08-26T10:25:51.762Z,39.42
2022-08-26T10:31:09.232Z,40.07
2022-08-26T10:36:43.081Z,40.16
2022-08-26T10:42:09.848Z,35.57
2022-08-26T10:47:19.048Z,36.83
2022-08-26T10:52:37.397Z,38.69
2022-08-26T10:58:26.206Z,35.43
2022-08-26T11:03:38.890Z,31.27
2022-08-26T11:08:50.030Z,30.64
2022-08-26T11:14:05.094Z,33.69
2022-08-26T11:19:09.793Z,30.64
2022-08-26T11:24:46.481Z,31.26
2022-08-26T11:30:13.332Z,35.47
2022-08-26T11:35:21.962Z,40.11
2022-08-26T11:40:31.492Z,41.40
2022-08-26T11:45:34.456Z,43.97
2022-08-26T11:50:39.740Z,37.94
2022-08-26T11:55:45.019Z,34.48
2022-08-26T12:00:54.687Z,37.49
2022-08-26T12:05:58.573Z,38.35
2022-08-26T12:11:09.966Z,35.06
2022-08-26T12:16:12.524Z,36.20
2022-08-26T12:21:24.673Z,41.25
2022-08-26T12:26:37.533Z,44.14
2022-08-26T12:31:44.422Z,40.85
2022-08-26T12:42:24.354Z,46.38
2022-08-26T12:47:43.112Z,46.56
2022-08-26T12:53:10.492Z,43.83
2022-08-26T12:58:14.294Z,43.15
2022-08-26T13:03:48.999Z,44.22
2022-08-26T13:08:57.939Z,38.21
2022-08-26T13:14:07.461Z,37.38
2022-08-26T13:19:16.035Z,41.41
2022-08-26T13:24:23.300Z,45.82
2022-08-26T13:29:25.833Z,47.32
2022-08-26T13:34:29.908Z,49.75
2022-08-26T13:39:33.220Z,52.77
2022-08-26T13:44:38.914Z,56.83
2022-08-26T13:49:41.408Z,75.12
2022-08-26T13:54:44.046Z,60.59
2022-08-26T13:59:46.494Z,59.99
2022-08-26T14:04:49.016Z,58.55
2022-08-26T14:09:51.569Z,58.34
2022-08-26T14:14:54.139Z,56.21
2022-08-26T14:19:56.731Z,50.75
2022-08-26T14:24:59.632Z,47.94
2022-08-26T14:30:02.141Z,44.28
2022-08-26T14:35:04.830Z,45.66
2022-08-26T14:40:08.242Z,50.77
2022-08-26T14:45:15.945Z,50.73
2022-08-26T14:50:22.674Z,51.79
2022-08-26T14:55:25.798Z,51.49
2022-08-26T15:00:28.956Z,52.83
2022-08-26T15:05:31.495Z,51.81
2022-08-26T15:10:34.238Z,54.17
2022-08-26T15:15:38.003Z,53.28
2022-08-26T15:20:40.631Z,57.72
2022-08-26T15:25:46.465Z,62.15
2022-08-26T15:30:49.333Z,62.74
2022-08-26T15:35:51.979Z,61.87
2022-08-26T15:40:54.688Z,61.90
2022-08-26T15:45:57.849Z,61.28
2022-08-26T15:51:01.615Z,61.11
2022-08-26T15:56:04.360Z,60.28
2022-08-26T16:01:06.906Z,59.49
2022-08-26T16:06:12.902Z,60.98
2022-08-26T16:11:15.564Z,60.94
2022-08-26T16:16:18.282Z,61.03
2022-08-26T16:21:24.817Z,64.49
2022-08-26T16:26:32.734Z,67.59
2022-08-26T16:31:35.639Z,91.40
2022-08-26T16:36:39.736Z,92.90
2022-08-26T16:41:42.406Z,82.39
2022-08-26T16:46:45.684Z,77.55
2022-08-26T16:51:48.241Z,81.23
2022-08-26T16:56:50.731Z,75.42
2022-08-26T17:01:54.043Z,74.63
2022-08-26T17:06:56.831Z,75.12
2022-08-26T17:11:59.454Z,73.85
2022-08-26T17:17:01.921Z,74.86
2022-08-26T17:22:08.437Z,73.89
2022-08-26T17:27:12.079Z,72.77
2022-08-26T17:32:14.738Z,70.58
2022-08-26T17:37:17.550Z,71.00
2022-08-26T17:42:20.530Z,70.39
2022-08-26T17:47:34.460Z,70.22
2022-08-26T17:52:38.352Z,70.38
2022-08-26T17:57:42.332Z,77.18
2022-08-26T18:02:45.411Z,81.41
2022-08-26T18:07:48.517Z,74.69
2022-08-26T18:12:51.050Z,77.21
2022-08-26T18:17:53.789Z,92.35
2022-08-26T18:22:56.445Z,100.00
2022-08-26T18:27:59.250Z,100.00
2022-08-26T18:33:02.558Z,96.19
2022-08-26T18:38:10.770Z,88.96
2022-08-26T18:43:14.293Z,81.09
2022-08-26T18:48:16.843Z,77.00
2022-08-26T18:53:19.486Z,80.76
2022-08-26T18:58:22.843Z,88.81
2022-08-26T19:03:26.718Z,100.00
2022-08-26T19:08:29.238Z,100.00
2022-08-26T19:13:32.217Z,99.69
2022-08-26T19:18:34.954Z,100.00
2022-08-26T19:23:37.954Z,100.00
2022-08-26T19:28:41.056Z,100.00
2022-08-26T19:33:45.568Z,91.39
2022-08-26T19:38:49.185Z,99.60
2022-08-26T19:43:51.796Z,100.00
2022-08-26T19:48:55.922Z,90.28
2022-08-26T19:54:00.450Z,100.00
2022-08-26T19:59:03.345Z,100.00
2022-08-26T20:04:05.830Z,100.00
2022-08-26T20:09:08.786Z,100.00
2022-08-26T20:14:11.369Z,100.00
2022-08-26T20:19:36.831Z,100.00
2022-08-26T20:24:40.070Z,100.00
2022-08-26T20:29:43.177Z,100.00
2022-08-26T20:34:45.767Z,100.00
2022-08-26T20:39:48.582Z,100.00
2022-08-26T20:44:54.248Z,100.00
2022-08-26T20:49:57.797Z,100.00
2022-08-26T20:55:00.636Z,100.00
2022-08-26T21:00:05.330Z,100.00
2022-08-26T21:05:08.761Z,100.00
2022-08-26T21:10:12.059Z,100.00
2022-08-26T21:15:14.612Z,100.00
2022-08-26T21:20:17.449Z,96.25
2022-08-26T21:25:20.429Z,97.57
2022-08-26T21:30:23.173Z,100.00
2022-08-26T21:35:26.035Z,100.00
2022-08-26T21:40:28.783Z,100.00
2022-08-26T21:45:31.348Z,100.00
2022-08-26T21:50:36.973Z,98.14
2022-08-26T21:55:42.316Z,100.00
2022-08-26T22:00:52.041Z,97.89
2022-08-26T22:05:55.338Z,100.00
2022-08-26T22:11:00.069Z,100.00
2022-08-26T22:16:02.791Z,100.00
2022-08-26T22:21:10.789Z,100.00
2022-08-26T22:26:20.565Z,96.79
2022-08-26T22:31:38.378Z,93.13
2022-08-26T22:36:44.692Z,93.94
2022-08-26T22:41:48.617Z,87.81
2022-08-26T22:46:54.419Z,90.55
2022-08-26T22:51:57.366Z,94.03
2022-08-26T22:56:59.879Z,95.26
2022-08-26T23:02:02.791Z,96.51
2022-08-26T23:07:05.371Z,97.83
2022-08-26T23:12:08.578Z,98.61
2022-08-26T23:17:12.226Z,95.79
2022-08-26T23:22:16.176Z,93.41
2022-08-26T23:27:19.004Z,93.66
2022-08-26T23:32:21.901Z,94.14
2022-08-26T23:37:33.467Z,91.76
2022-08-26T23:42:38.482Z,91.27
2022-08-26T23:47:41.531Z,99.10
2022-08-26T23:53:02.628Z,100.00
2022-08-26T23:58:06.506Z,98.76
